Time;durP1;ratioP1;P1;durP2;ratioP2;P2;SDS_P1;SDS_P2;PMS_P1;PMS_P2;Temp;Humidity;BMP_temperature;BMP_pressure;BME280_temperature;BME280_humidity;BME280_pressure;Samples;Min_cycle;Max_cycle;Signal;HPM_P1;HPM_P2
2021/10/04 00:01:07;;;;;;;3.80;2.83;;;;;;;;;;5110771;28;20023;-60
2021/10/04 00:03:34;;;;;;;2.87;2.10;;;;;;;;;;5113401;28;20024;-60
2021/10/04 00:06:01;;;;;;;3.37;2.30;;;;;;;;;;5102844;28;20016;-60
2021/10/04 00:08:28;;;;;;;3.77;2.70;;;;;;;;;;5093093;28;20020;-60
2021/10/04 00:10:55;;;;;;;4.13;2.77;;;;;;;;;;5092373;28;20064;-60
2021/10/04 00:13:22;;;;;;;3.17;2.40;;;;;;;;;;5090238;28;20028;-60
2021/10/04 00:15:48;;;;;;;3.37;2.43;;;;;;;;;;5087797;28;20055;-59
2021/10/04 00:18:15;;;;;;;4.43;3.10;;;;;;;;;;5099521;28;20059;-60
2021/10/04 00:20:42;;;;;;;4.07;2.97;;;;;;;;;;5108165;28;20107;-60
2021/10/04 00:23:09;;;;;;;3.40;2.27;;;;;;;;;;5109773;28;20027;-60
2021/10/04 00:25:36;;;;;;;2.60;2.27;;;;;;;;;;5112946;28;20026;-60
2021/10/04 00:28:02;;;;;;;2.50;2.10;;;;;;;;;;5112839;28;20024;-59
2021/10/04 00:30:29;;;;;;;4.03;2.43;;;;;;;;;;5098524;28;20028;-60
2021/10/04 00:32:57;;;;;;;2.90;2.27;;;;;;;;;;5092632;28;20032;-60
2021/10/04 00:35:25;;;;;;;3.20;2.27;;;;;;;;;;5090442;28;20105;-60
2021/10/04 00:37:52;;;;;;;3.30;2.30;;;;;;;;;;5087513;28;20036;-60
2021/10/04 00:40:20;;;;;;;3.23;2.70;;;;;;;;;;5087297;28;20020;-59
2021/10/04 00:42:47;;;;;;;4.50;2.10;;;;;;;;;;5101281;28;20058;-60
2021/10/04 00:45:14;;;;;;;2.67;2.07;;;;;;;;;;5108803;28;20020;-60
2021/10/04 00:47:41;;;;;;;6.93;2.33;;;;;;;;;;5112644;28;20077;-59
2021/10/04 00:50:09;;;;;;;2.60;1.80;;;;;;;;;;5112846;28;20027;-60
2021/10/04 00:52:36;;;;;;;2.90;2.13;;;;;;;;;;5112617;28;20032;-60
2021/10/04 00:55:04;;;;;;;4.00;2.43;;;;;;;;;;5097096;28;20020;-60
2021/10/04 00:57:31;;;;;;;4.37;2.83;;;;;;;;;;5090631;28;20020;-59
2021/10/04 00:59:58;;;;;;;4.03;2.70;;;;;;;;;;5086824;28;20036;-59
2021/10/04 01:02:25;;;;;;;4.63;3.03;;;;;;;;;;5087113;28;20035;-60
2021/10/04 01:04:52;;;;;;;6.50;3.67;;;;;;;;;;5087150;28;20128;-60
2021/10/04 01:07:18;;;;;;;8.93;4.70;;;;;;;;;;5105678;28;20536;-60
2021/10/04 01:09:45;;;;;;;6.97;4.40;;;;;;;;;;5112358;28;20055;-59
2021/10/04 01:12:12;;;;;;;10.17;4.20;;;;;;;;;;5112577;28;20092;-59
2021/10/04 01:14:39;;;;;;;6.07;3.83;;;;;;;;;;5112475;28;20032;-59
2021/10/04 01:17:06;;;;;;;7.17;4.13;;;;;;;;;;5110695;28;20027;-59
2021/10/04 01:19:33;;;;;;;8.23;3.87;;;;;;;;;;5091037;28;20016;-60
2021/10/04 01:21:59;;;;;;;6.27;4.30;;;;;;;;;;5086692;28;20024;-60
2021/10/04 01:24:26;;;;;;;5.73;3.93;;;;;;;;;;5087323;28;20474;-59
2021/10/04 01:26:53;;;;;;;7.90;4.27;;;;;;;;;;5087107;28;20020;-60
2021/10/04 01:29:20;;;;;;;5.73;3.40;;;;;;;;;;5092253;28;20110;-59
2021/10/04 01:31:47;;;;;;;8.13;4.23;;;;;;;;;;5112268;28;20059;-60
2021/10/04 01:34:14;;;;;;;4.20;3.10;;;;;;;;;;5106897;28;20028;-59
2021/10/04 01:36:41;;;;;;;6.57;3.03;;;;;;;;;;5092353;28;20020;-59
2021/10/04 01:39:08;;;;;;;11.60;3.43;;;;;;;;;;5092083;28;20406;-60
2021/10/04 01:41:35;;;;;;;5.83;2.90;;;;;;;;;;5091100;28;20020;-59
2021/10/04 01:44:01;;;;;;;7.83;3.57;;;;;;;;;;5086815;28;20482;-59
2021/10/04 01:46:28;;;;;;;5.53;3.20;;;;;;;;;;5089094;28;20020;-59
2021/10/04 01:48:55;;;;;;;5.23;3.27;;;;;;;;;;5089056;28;20020;-59
2021/10/04 01:51:22;;;;;;;3.97;2.70;;;;;;;;;;5106659;28;20020;-60
2021/10/04 01:53:49;;;;;;;6.57;3.50;;;;;;;;;;5112309;28;20016;-59
2021/10/04 01:56:15;;;;;;;7.07;4.50;;;;;;;;;;5112235;28;20024;-59
2021/10/04 01:58:42;;;;;;;5.67;3.63;;;;;;;;;;5112329;28;20129;-60
2021/10/04 02:01:09;;;;;;;9.00;3.20;;;;;;;;;;5095703;28;20028;-59
2021/10/04 02:03:36;;;;;;;4.30;3.33;;;;;;;;;;5095597;28;20062;-59
2021/10/04 02:06:03;;;;;;;5.40;3.27;;;;;;;;;;5090406;28;20046;-60
2021/10/04 02:08:30;;;;;;;6.37;3.03;;;;;;;;;;5089930;28;20081;-59
2021/10/04 02:10:57;;;;;;;4.60;2.70;;;;;;;;;;5093575;28;20546;-59
2021/10/04 02:13:24;;;;;;;7.70;3.77;;;;;;;;;;5110450;28;20071;-59
2021/10/04 02:15:51;;;;;;;8.43;2.70;;;;;;;;;;5115037;28;20420;-59
2021/10/04 02:18:18;;;;;;;5.73;3.40;;;;;;;;;;5115485;28;20102;-59
2021/10/04 02:20:47;;;;;;;9.67;3.83;;;;;;;;;;5115502;28;20015;-61
2021/10/04 02:23:14;;;;;;;5.87;3.60;;;;;;;;;;5112058;28;20024;-59
2021/10/04 02:25:44;;;;;;;7.30;3.37;;;;;;;;;;5094556;28;20043;-59
2021/10/04 02:28:11;;;;;;;9.20;3.50;;;;;;;;;;5090351;28;20085;-59
2021/10/04 02:30:38;;;;;;;6.20;2.80;;;;;;;;;;5090069;28;20116;-59
2021/10/04 02:33:06;;;;;;;6.43;2.90;;;;;;;;;;5089963;28;20078;-59
2021/10/04 02:35:33;;;;;;;4.33;3.40;;;;;;;;;;5092622;28;20059;-60
2021/10/04 02:37:59;;;;;;;6.00;3.20;;;;;;;;;;5114289;28;20020;-59
2021/10/04 02:40:27;;;;;;;6.73;2.87;;;;;;;;;;5114751;28;20028;-59
2021/10/04 02:42:54;;;;;;;6.23;3.30;;;;;;;;;;5115078;28;20020;-59
2021/10/04 02:45:22;;;;;;;6.70;2.93;;;;;;;;;;5114773;28;20019;-60
2021/10/04 02:47:50;;;;;;;6.20;2.80;;;;;;;;;;5074437;28;20111;-59
2021/10/04 02:50:18;;;;;;;4.20;2.70;;;;;;;;;;5069700;28;20024;-59
2021/10/04 02:52:46;;;;;;;8.40;4.07;;;;;;;;;;5069110;28;20056;-59
2021/10/04 02:55:12;;;;;;;5.30;3.57;;;;;;;;;;5068930;28;20491;-59
2021/10/04 02:57:39;;;;;;;4.20;3.00;;;;;;;;;;5107720;28;20469;-59
2021/10/04 03:00:08;;;;;;;3.50;2.43;;;;;;;;;;5113626;28;20024;-59
2021/10/04 03:02:35;;;;;;;7.60;3.00;;;;;;;;;;5105080;28;20024;-59
2021/10/04 03:05:02;;;;;;;5.47;3.27;;;;;;;;;;5094323;28;20038;-59
2021/10/04 03:07:28;;;;;;;7.03;3.50;;;;;;;;;;5094398;28;20028;-59
2021/10/04 03:09:55;;;;;;;6.57;3.50;;;;;;;;;;5093786;28;20390;-59
2021/10/04 03:12:22;;;;;;;10.77;3.40;;;;;;;;;;5090681;28;20425;-59
2021/10/04 03:14:49;;;;;;;6.37;3.37;;;;;;;;;;5089196;28;20028;-59
2021/10/04 03:17:15;;;;;;;7.10;4.07;;;;;;;;;;5095320;28;20114;-59
2021/10/04 03:19:43;;;;;;;6.97;3.63;;;;;;;;;;5109309;28;20024;-59
2021/10/04 03:22:09;;;;;;;5.73;3.90;;;;;;;;;;5112705;28;20020;-60
2021/10/04 03:24:36;;;;;;;6.93;3.53;;;;;;;;;;5114369;28;20034;-58
2021/10/04 03:27:03;;;;;;;5.83;3.00;;;;;;;;;;5109943;28;20109;-59
2021/10/04 03:29:30;;;;;;;5.23;3.33;;;;;;;;;;5093518;28;20486;-59
2021/10/04 03:31:57;;;;;;;5.20;3.13;;;;;;;;;;5097422;28;20051;-59
2021/10/04 03:34:24;;;;;;;7.30;3.57;;;;;;;;;;5110528;28;20118;-58
2021/10/04 03:36:50;;;;;;;5.20;3.27;;;;;;;;;;5109106;28;20030;-59
2021/10/04 03:39:17;;;;;;;5.20;3.77;;;;;;;;;;5109099;28;20034;-59
2021/10/04 03:41:44;;;;;;;5.60;3.60;;;;;;;;;;5107516;28;20032;-59
2021/10/04 03:44:11;;;;;;;5.57;3.90;;;;;;;;;;5091049;28;20387;-59
2021/10/04 03:46:38;;;;;;;8.53;4.13;;;;;;;;;;5093513;28;20032;-59
2021/10/04 03:49:05;;;;;;;6.97;4.37;;;;;;;;;;5093553;28;20142;-59
2021/10/04 03:51:32;;;;;;;7.00;3.40;;;;;;;;;;5093316;28;20031;-59
2021/10/04 03:53:58;;;;;;;7.90;3.80;;;;;;;;;;5095534;28;20023;-59
2021/10/04 03:56:25;;;;;;;8.97;3.80;;;;;;;;;;5110327;28;20023;-59
2021/10/04 03:58:52;;;;;;;6.10;3.27;;;;;;;;;;5108692;28;20031;-59
2021/10/04 04:01:19;;;;;;;5.97;3.97;;;;;;;;;;5108085;28;20023;-59
2021/10/04 04:03:48;;;;;;;6.50;3.60;;;;;;;;;;5108627;28;20066;-59
2021/10/04 04:06:14;;;;;;;6.43;3.90;;;;;;;;;;5108415;28;20027;-59
2021/10/04 04:08:41;;;;;;;8.40;4.20;;;;;;;;;;5093056;28;20024;-59
2021/10/04 04:11:08;;;;;;;8.00;4.13;;;;;;;;;;5093076;28;20024;-59
2021/10/04 04:13:35;;;;;;;18.03;4.90;;;;;;;;;;5093007;28;20032;-59
2021/10/04 04:16:02;;;;;;;9.67;5.53;;;;;;;;;;5092970;28;20103;-59
2021/10/04 04:18:28;;;;;;;6.97;4.70;;;;;;;;;;5090758;28;20031;-59
2021/10/04 04:20:55;;;;;;;6.87;4.47;;;;;;;;;;5108333;28;20031;-60
2021/10/04 04:23:22;;;;;;;7.40;4.60;;;;;;;;;;5107791;28;20408;-59
2021/10/04 04:25:49;;;;;;;10.03;4.00;;;;;;;;;;5108176;28;20027;-59
2021/10/04 04:28:15;;;;;;;6.77;3.73;;;;;;;;;;5110408;28;20027;-58
2021/10/04 04:30:42;;;;;;;7.63;4.60;;;;;;;;;;5111120;28;20469;-59
2021/10/04 04:33:09;;;;;;;6.40;4.60;;;;;;;;;;5092136;28;20394;-59
2021/10/04 04:35:36;;;;;;;7.90;4.70;;;;;;;;;;5092843;28;20472;-59
2021/10/04 04:38:03;;;;;;;6.90;4.30;;;;;;;;;;5092498;28;20028;-59
2021/10/04 04:40:30;;;;;;;7.70;3.83;;;;;;;;;;5090189;28;20020;-59
2021/10/04 04:42:57;;;;;;;7.10;3.80;;;;;;;;;;5089544;28;20048;-59
2021/10/04 04:45:25;;;;;;;4.03;3.23;;;;;;;;;;5107738;28;20103;-58
2021/10/04 04:47:52;;;;;;;8.30;4.83;;;;;;;;;;5107654;28;20023;-59
2021/10/04 04:50:19;;;;;;;9.10;5.37;;;;;;;;;;5109722;28;20061;-59
2021/10/04 04:52:46;;;;;;;8.07;4.97;;;;;;;;;;5112845;28;20119;-59
2021/10/04 04:55:13;;;;;;;8.03;5.87;;;;;;;;;;5106178;28;20024;-58
2021/10/04 04:57:40;;;;;;;10.23;6.50;;;;;;;;;;5092651;28;20024;-59
2021/10/04 05:00:08;;;;;;;10.13;5.70;;;;;;;;;;5092512;28;20019;-58
2021/10/04 05:02:38;;;;;;;10.57;6.10;;;;;;;;;;5090086;28;20510;-58
2021/10/04 05:05:06;;;;;;;9.20;5.50;;;;;;;;;;5087130;28;20032;-58
2021/10/04 05:07:33;;;;;;;13.03;5.50;;;;;;;;;;5098383;28;20031;-58
2021/10/04 05:09:59;;;;;;;10.93;5.40;;;;;;;;;;5107646;28;20032;-58
2021/10/04 05:12:26;;;;;;;7.93;5.37;;;;;;;;;;5109541;28;20035;-58
2021/10/04 05:14:53;;;;;;;6.70;4.97;;;;;;;;;;5102737;28;20069;-58
2021/10/04 05:17:20;;;;;;;6.87;4.77;;;;;;;;;;5092265;28;20379;-58
2021/10/04 05:19:47;;;;;;;8.63;5.13;;;;;;;;;;5092889;28;20408;-58
2021/10/04 05:22:13;;;;;;;8.87;5.73;;;;;;;;;;5093273;28;20024;-58
2021/10/04 05:24:40;;;;;;;9.37;5.47;;;;;;;;;;5090219;28;20060;-58
2021/10/04 05:27:07;;;;;;;9.90;5.20;;;;;;;;;;5087240;28;20024;-58
2021/10/04 05:29:34;;;;;;;6.33;4.27;;;;;;;;;;5093891;28;20024;-59
2021/10/04 05:32:01;;;;;;;7.07;5.03;;;;;;;;;;5107351;28;20043;-60
2021/10/04 05:34:27;;;;;;;7.67;4.90;;;;;;;;;;5110068;28;20047;-59
2021/10/04 05:36:54;;;;;;;10.73;5.00;;;;;;;;;;5116045;28;20024;-58
2021/10/04 05:39:21;;;;;;;9.13;5.00;;;;;;;;;;5112181;28;20016;-58
2021/10/04 05:41:48;;;;;;;7.30;4.80;;;;;;;;;;5095712;28;20027;-59
2021/10/04 05:44:14;;;;;;;6.13;4.47;;;;;;;;;;5116087;28;20062;-58
2021/10/04 05:46:41;;;;;;;7.30;4.47;;;;;;;;;;5114656;28;20024;-59
2021/10/04 05:49:08;;;;;;;7.33;4.80;;;;;;;;;;5111311;28;20052;-59
2021/10/04 05:51:35;;;;;;;7.33;4.93;;;;;;;;;;5098785;28;20020;-59
2021/10/04 05:54:02;;;;;;;7.97;5.57;;;;;;;;;;5082685;28;20498;-60
2021/10/04 05:56:28;;;;;;;7.83;5.40;;;;;;;;;;5077043;28;20470;-59
2021/10/04 05:58:55;;;;;;;7.07;5.40;;;;;;;;;;5075225;28;20052;-59
2021/10/04 06:01:22;;;;;;;7.13;5.17;;;;;;;;;;5087478;28;20054;-59
2021/10/04 06:03:50;;;;;;;7.37;5.50;;;;;;;;;;5091335;28;20355;-59
2021/10/04 06:06:17;;;;;;;6.37;4.63;;;;;;;;;;5066726;28;20032;-59
2021/10/04 06:08:43;;;;;;;6.10;4.07;;;;;;;;;;5079560;28;20518;-59
2021/10/04 06:11:10;;;;;;;6.57;4.90;;;;;;;;;;5082386;28;20036;-59
2021/10/04 06:13:37;;;;;;;8.07;4.53;;;;;;;;;;5070143;28;20543;-59
2021/10/04 06:16:04;;;;;;;7.20;5.20;;;;;;;;;;5076159;28;20425;-60
2021/10/04 06:18:31;;;;;;;6.97;5.23;;;;;;;;;;5090738;28;20382;-59
2021/10/04 06:20:57;;;;;;;7.70;5.03;;;;;;;;;;5095203;28;20498;-59
2021/10/04 06:23:24;;;;;;;7.00;5.07;;;;;;;;;;5102826;28;20023;-62
2021/10/04 06:25:51;;;;;;;5.73;4.47;;;;;;;;;;5115154;28;20065;-59
2021/10/04 06:28:18;;;;;;;10.23;5.30;;;;;;;;;;5115456;28;20020;-60
2021/10/04 06:30:45;;;;;;;7.80;5.13;;;;;;;;;;5114560;28;20051;-60
2021/10/04 06:33:11;;;;;;;8.07;5.10;;;;;;;;;;5105171;28;20042;-59
2021/10/04 06:35:39;;;;;;;9.93;5.60;;;;;;;;;;5090053;28;20027;-59
2021/10/04 06:38:05;;;;;;;6.40;5.10;;;;;;;;;;5089878;28;20478;-60
2021/10/04 06:40:32;;;;;;;7.50;5.10;;;;;;;;;;5089808;28;20046;-59
2021/10/04 06:42:59;;;;;;;6.73;4.97;;;;;;;;;;5094360;28;20020;-60
2021/10/04 06:45:26;;;;;;;8.20;4.70;;;;;;;;;;5098438;28;20020;-60
2021/10/04 06:47:53;;;;;;;6.87;4.50;;;;;;;;;;5115204;28;20016;-59
2021/10/04 06:50:20;;;;;;;5.37;4.00;;;;;;;;;;5114791;28;20415;-59
2021/10/04 06:52:46;;;;;;;6.07;4.70;;;;;;;;;;5114769;28;20032;-59
2021/10/04 06:55:13;;;;;;;6.53;4.20;;;;;;;;;;5109880;28;20023;-59
2021/10/04 06:57:41;;;;;;;5.73;4.47;;;;;;;;;;5105404;28;20028;-60
2021/10/04 07:00:17;;;;;;;4.83;3.60;;;;;;;;;;5089290;28;20073;-60
2021/10/04 07:02:44;;;;;;;6.83;4.13;;;;;;;;;;5089457;28;20050;-59
2021/10/04 07:05:11;;;;;;;5.53;3.87;;;;;;;;;;5094514;28;20031;-61
2021/10/04 07:07:38;;;;;;;5.77;3.67;;;;;;;;;;5094259;28;20038;-59
2021/10/04 07:10:05;;;;;;;6.50;4.03;;;;;;;;;;5102340;28;20063;-59
2021/10/04 07:12:32;;;;;;;5.33;4.07;;;;;;;;;;5114244;28;20035;-59
2021/10/04 07:14:58;;;;;;;6.67;4.87;;;;;;;;;;5114334;28;20027;-59
2021/10/04 07:17:25;;;;;;;6.70;3.70;;;;;;;;;;5109431;28;20367;-59
2021/10/04 07:19:52;;;;;;;5.13;3.83;;;;;;;;;;5109428;28;20355;-59
2021/10/04 07:22:19;;;;;;;9.87;4.73;;;;;;;;;;5096418;28;20034;-59
2021/10/04 07:24:46;;;;;;;9.00;5.13;;;;;;;;;;5088862;28;20016;-59
2021/10/04 07:27:13;;;;;;;6.67;4.30;;;;;;;;;;5093670;28;20378;-59
2021/10/04 07:29:40;;;;;;;5.53;4.03;;;;;;;;;;5093896;28;20409;-59
2021/10/04 07:32:07;;;;;;;5.07;3.67;;;;;;;;;;5093960;28;20036;-59
2021/10/04 07:34:33;;;;;;;5.33;4.23;;;;;;;;;;5105874;28;20027;-59
2021/10/04 07:37:01;;;;;;;7.27;4.47;;;;;;;;;;5114341;28;20496;-59
2021/10/04 07:39:28;;;;;;;6.57;4.87;;;;;;;;;;5109102;28;20359;-60
2021/10/04 07:41:57;;;;;;;5.83;4.17;;;;;;;;;;5108904;28;20034;-59
2021/10/04 07:44:24;;;;;;;7.00;3.27;;;;;;;;;;5108861;28;20243;-60
2021/10/04 07:46:51;;;;;;;5.73;3.30;;;;;;;;;;5096434;28;20378;-59
2021/10/04 07:49:18;;;;;;;5.80;4.10;;;;;;;;;;5092961;28;20024;-59
2021/10/04 07:51:45;;;;;;;7.83;3.40;;;;;;;;;;5093305;28;20024;-59
2021/10/04 07:54:12;;;;;;;7.23;3.60;;;;;;;;;;5093661;28;20409;-59
2021/10/04 07:56:41;;;;;;;5.03;3.90;;;;;;;;;;5092724;28;20020;-59
2021/10/04 07:59:08;;;;;;;5.00;3.87;;;;;;;;;;5107761;28;20482;-59
2021/10/04 08:01:35;;;;;;;5.73;4.30;;;;;;;;;;5108493;28;20547;-59
2021/10/04 08:04:02;;;;;;;4.80;4.00;;;;;;;;;;5108683;28;20359;-60
2021/10/04 08:06:29;;;;;;;5.77;4.63;;;;;;;;;;5108485;28;20023;-60
2021/10/04 08:08:56;;;;;;;5.40;4.37;;;;;;;;;;5108661;28;20431;-59
2021/10/04 08:11:23;;;;;;;5.33;4.57;;;;;;;;;;5093111;28;20036;-59
2021/10/04 08:13:50;;;;;;;5.73;4.40;;;;;;;;;;5093186;28;20032;-59
2021/10/04 08:16:20;;;;;;;4.80;3.93;;;;;;;;;;5092857;28;20024;-59
2021/10/04 08:18:46;;;;;;;8.63;4.23;;;;;;;;;;5092872;28;20027;-59
2021/10/04 08:21:15;;;;;;;5.47;4.57;;;;;;;;;;5093337;28;20449;-59
2021/10/04 08:23:42;;;;;;;5.67;4.50;;;;;;;;;;5068099;28;20386;-59
2021/10/04 08:26:09;;;;;;;13.20;6.50;;;;;;;;;;5067714;28;20024;-59
2021/10/04 08:28:36;;;;;;;6.63;3.60;;;;;;;;;;5067720;28;20036;-59
2021/10/04 08:31:04;;;;;;;6.00;4.60;;;;;;;;;;5067569;28;20103;-59
2021/10/04 08:33:31;;;;;;;7.90;3.90;;;;;;;;;;5075627;28;20054;-59
2021/10/04 08:35:58;;;;;;;6.60;4.00;;;;;;;;;;5113162;28;20393;-59
2021/10/04 08:38:26;;;;;;;7.13;4.30;;;;;;;;;;5113113;28;20027;-60
2021/10/04 08:40:53;;;;;;;5.30;3.60;;;;;;;;;;5113069;28;20027;-59
2021/10/04 08:43:20;;;;;;;6.67;3.57;;;;;;;;;;5112965;28;20080;-59
2021/10/04 08:45:46;;;;;;;4.90;3.57;;;;;;;;;;5101265;28;20378;-59
2021/10/04 08:48:13;;;;;;;4.93;3.97;;;;;;;;;;5087246;28;20047;-59
2021/10/04 08:50:40;;;;;;;5.97;3.93;;;;;;;;;;5088432;28;20115;-59
2021/10/04 08:53:07;;;;;;;6.03;4.97;;;;;;;;;;5087453;28;20036;-59
2021/10/04 08:55:35;;;;;;;6.17;4.23;;;;;;;;;;5090971;28;20016;-59
2021/10/04 08:58:02;;;;;;;4.57;3.60;;;;;;;;;;5103797;28;20038;-59
2021/10/04 09:00:29;;;;;;;4.50;3.00;;;;;;;;;;5113654;28;20488;-59
2021/10/04 09:03:05;;;;;;;5.13;3.50;;;;;;;;;;5112950;28;20355;-59
2021/10/04 09:05:34;;;;;;;4.73;2.80;;;;;;;;;;5112929;28;20072;-59
2021/10/04 09:08:12;;;;;;;3.70;2.70;;;;;;;;;;5108735;28;20106;-59
2021/10/04 09:10:41;;;;;;;3.87;2.80;;;;;;;;;;5096677;28;20035;-59
2021/10/04 09:13:09;;;;;;;4.33;2.83;;;;;;;;;;5091282;28;20071;-59
2021/10/04 09:15:37;;;;;;;3.13;2.47;;;;;;;;;;5091183;28;20081;-60
2021/10/04 09:18:09;;;;;;;3.90;2.50;;;;;;;;;;5095690;28;20013;-59
2021/10/04 09:20:51;;;;;;;4.10;2.30;;;;;;;;;;5096232;28;20020;-59
2021/10/04 09:23:36;;;;;;;3.70;2.50;;;;;;;;;;5114497;28;20035;-59
2021/10/04 09:26:05;;;;;;;3.42;2.00;;;;;;;;;;5076007;28;20483;-59
2021/10/04 09:28:36;;;;;;;3.00;2.20;;;;;;;;;;5075307;28;20116;-59
2021/10/04 09:31:21;;;;;;;4.03;2.47;;;;;;;;;;5070918;28;20070;-59
2021/10/04 09:34:01;;;;;;;3.70;2.83;;;;;;;;;;5074472;28;20059;-59
2021/10/04 09:36:32;;;;;;;5.30;2.33;;;;;;;;;;5111545;28;20057;-59
2021/10/04 09:39:19;;;;;;;3.70;2.40;;;;;;;;;;5094734;28;20034;-59
2021/10/04 09:42:06;;;;;;;4.10;2.47;;;;;;;;;;5115861;28;20030;-59
2021/10/04 09:44:43;;;;;;;4.37;2.57;;;;;;;;;;5116310;28;20024;-59
2021/10/04 09:47:12;;;;;;;3.40;2.37;;;;;;;;;;5100437;28;20032;-59
2021/10/04 09:50:07;;;;;;;6.00;2.50;;;;;;;;;;5095914;28;20051;-59
2021/10/04 09:52:36;;;;;;;3.40;2.57;;;;;;;;;;5073911;28;20047;-59
2021/10/04 09:55:12;;;;;;;3.17;2.33;;;;;;;;;;5090893;28;20027;-59
2021/10/04 09:57:39;;;;;;;3.10;2.20;;;;;;;;;;5090449;28;20133;-60
2021/10/04 10:00:06;;;;;;;3.40;2.53;;;;;;;;;;5110963;28;20027;-59
2021/10/04 10:02:33;;;;;;;3.10;2.10;;;;;;;;;;5115298;28;20456;-59
2021/10/04 10:05:00;;;;;;;3.30;2.50;;;;;;;;;;5116039;28;20020;-59
2021/10/04 10:07:27;;;;;;;3.83;2.20;;;;;;;;;;5115958;28;20034;-59
2021/10/04 10:09:55;;;;;;;3.60;2.97;;;;;;;;;;5115785;28;20035;-60
2021/10/04 10:12:22;;;;;;;2.73;1.83;;;;;;;;;;5115466;28;20032;-59
2021/10/04 10:14:50;;;;;;;4.73;2.03;;;;;;;;;;5110503;28;20028;-59
2021/10/04 10:17:29;;;;;;;4.60;1.90;;;;;;;;;;5110703;28;20119;-59
2021/10/04 10:19:58;;;;;;;3.80;2.30;;;;;;;;;;5110103;28;20020;-59
2021/10/04 10:22:29;;;;;;;3.87;2.20;;;;;;;;;;5105553;28;20016;-60
2021/10/04 10:24:56;;;;;;;3.83;2.83;;;;;;;;;;5094860;28;20055;-59
2021/10/04 10:27:38;;;;;;;3.50;2.47;;;;;;;;;;5095045;28;20036;-59
2021/10/04 10:30:19;;;;;;;2.70;2.00;;;;;;;;;;5095098;28;20027;-59
2021/10/04 10:32:46;;;;;;;3.30;2.17;;;;;;;;;;5094559;28;20085;-59
2021/10/04 10:35:13;;;;;;;3.93;2.60;;;;;;;;;;5103728;28;20047;-59
2021/10/04 10:37:49;;;;;;;2.93;2.20;;;;;;;;;;5110221;28;20106;-59
2021/10/04 10:40:17;;;;;;;6.33;3.07;;;;;;;;;;5110362;28;20023;-59
2021/10/04 10:42:59;;;;;;;2.87;2.00;;;;;;;;;;5110202;28;20054;-59
2021/10/04 10:45:37;;;;;;;13.10;2.40;;;;;;;;;;5111143;28;20036;-59
2021/10/04 10:48:04;;;;;;;3.27;2.27;;;;;;;;;;5096458;28;20024;-59
2021/10/04 10:50:39;;;;;;;4.20;2.27;;;;;;;;;;5094754;28;20419;-59
2021/10/04 10:53:10;;;;;;;3.33;2.40;;;;;;;;;;5094474;28;20032;-59
2021/10/04 10:55:38;;;;;;;4.57;2.63;;;;;;;;;;5094764;28;20020;-59
2021/10/04 10:58:15;;;;;;;5.27;2.80;;;;;;;;;;5092234;28;20028;-59
2021/10/04 11:00:44;;;;;;;4.37;2.83;;;;;;;;;;5069365;28;20493;-59
2021/10/04 11:03:16;;;;;;;5.63;3.13;;;;;;;;;;5069217;28;20025;-59
2021/10/04 11:05:43;;;;;;;4.63;3.20;;;;;;;;;;5069080;28;20048;-59
2021/10/04 11:08:11;;;;;;;5.50;3.10;;;;;;;;;;5071568;28;20027;-59
2021/10/04 11:11:01;;;;;;;3.50;2.43;;;;;;;;;;5087217;28;20031;-59
2021/10/04 11:13:29;;;;;;;3.87;2.50;;;;;;;;;;5104066;28;20413;-59
2021/10/04 11:15:57;;;;;;;3.47;2.60;;;;;;;;;;5114663;28;20343;-59
2021/10/04 11:18:26;;;;;;;3.10;2.40;;;;;;;;;;5114640;28;20019;-59
2021/10/04 11:21:03;;;;;;;8.63;3.00;;;;;;;;;;5111088;28;20359;-59
2021/10/04 11:23:30;;;;;;;3.93;2.60;;;;;;;;;;5100894;28;20024;-59
2021/10/04 11:25:57;;;;;;;5.10;2.80;;;;;;;;;;5109406;28;20022;-59
2021/10/04 11:28:33;;;;;;;6.07;2.57;;;;;;;;;;5109440;28;20035;-59
2021/10/04 11:31:03;;;;;;;2.87;2.10;;;;;;;;;;5110272;28;20373;-59
2021/10/04 11:33:31;;;;;;;3.83;2.60;;;;;;;;;;5113677;28;20027;-59
2021/10/04 11:36:06;;;;;;;5.47;2.70;;;;;;;;;;5114203;28;20016;-59
2021/10/04 11:38:34;;;;;;;5.40;2.45;;;;;;;;;;5108996;28;20020;-59
2021/10/04 11:41:01;;;;;;;6.80;2.47;;;;;;;;;;5093749;28;20375;-59
2021/10/04 11:43:28;;;;;;;4.97;2.80;;;;;;;;;;5089472;28;20530;-59
2021/10/04 11:45:55;;;;;;;4.37;2.87;;;;;;;;;;5088529;28;20363;-59
2021/10/04 11:48:32;;;;;;;5.67;3.10;;;;;;;;;;5090458;28;20027;-59
2021/10/04 11:51:00;;;;;;;4.20;2.97;;;;;;;;;;5108873;28;20023;-59
2021/10/04 11:53:30;;;;;;;8.20;2.80;;;;;;;;;;5112735;28;20089;-59
2021/10/04 11:56:07;;;;;;;7.13;3.53;;;;;;;;;;5113744;28;20106;-59
2021/10/04 11:58:35;;;;;;;8.90;3.30;;;;;;;;;;5113880;28;20026;-59
2021/10/04 12:01:01;;;;;;;9.80;3.10;;;;;;;;;;5103637;28;20035;-59
2021/10/04 12:03:33;;;;;;;8.23;3.80;;;;;;;;;;5093324;28;20044;-59
2021/10/04 12:06:01;;;;;;;5.63;3.17;;;;;;;;;;5088161;28;20024;-60
2021/10/04 12:08:37;;;;;;;3.90;2.80;;;;;;;;;;5088383;28;20028;-59
2021/10/04 12:11:07;;;;;;;3.50;2.20;;;;;;;;;;5088191;28;20035;-59
2021/10/04 12:13:40;;;;;;;3.00;2.00;;;;;;;;;;5103641;28;20490;-59
2021/10/04 12:16:11;;;;;;;3.00;2.10;;;;;;;;;;5113295;28;20382;-58
2021/10/04 12:18:45;;;;;;;4.30;2.83;;;;;;;;;;5113362;28;20031;-59
2021/10/04 12:21:17;;;;;;;3.90;2.67;;;;;;;;;;5113539;28;20019;-59
2021/10/04 12:23:45;;;;;;;10.63;3.03;;;;;;;;;;5110670;28;20782;-59
2021/10/04 12:26:14;;;;;;;4.87;2.90;;;;;;;;;;5092221;28;20502;-59
2021/10/04 12:28:48;;;;;;;3.83;2.00;;;;;;;;;;5087969;28;20024;-59
2021/10/04 12:31:34;;;;;;;2.78;1.73;;;;;;;;;;5087638;28;20816;-59
2021/10/04 12:34:02;;;;;;;5.67;2.70;;;;;;;;;;5087644;28;20493;-59
2021/10/04 12:36:29;;;;;;;6.90;3.37;;;;;;;;;;5097385;28;20030;-59
2021/10/04 12:38:57;;;;;;;3.90;2.60;;;;;;;;;;5113127;28;20032;-59
2021/10/04 12:41:39;;;;;;;3.90;2.73;;;;;;;;;;5113169;28;20027;-59
2021/10/04 12:44:13;;;;;;;4.20;2.57;;;;;;;;;;5112642;28;20042;-59
2021/10/04 12:46:40;;;;;;;6.50;3.00;;;;;;;;;;5112910;28;20051;-59
2021/10/04 12:49:27;;;;;;;9.77;3.70;;;;;;;;;;5098134;28;20493;-59
2021/10/04 12:51:53;;;;;;;6.17;2.90;;;;;;;;;;5087408;28;20028;-59
2021/10/04 12:54:27;;;;;;;3.83;2.50;;;;;;;;;;5087416;28;20023;-59
2021/10/04 12:56:54;;;;;;;4.63;2.93;;;;;;;;;;5087464;28;20031;-59
2021/10/04 12:59:25;;;;;;;7.17;3.10;;;;;;;;;;5090060;28;20467;-59
2021/10/04 13:01:54;;;;;;;3.90;2.60;;;;;;;;;;5107467;28;20035;-59
2021/10/04 13:04:27;;;;;;;8.43;3.23;;;;;;;;;;5103099;28;20039;-59
2021/10/04 13:06:56;;;;;;;3.95;2.78;;;;;;;;;;5092194;28;20430;-59
2021/10/04 13:09:23;;;;;;;5.00;2.93;;;;;;;;;;5092282;28;20074;-59
2021/10/04 13:11:52;;;;;;;4.07;2.67;;;;;;;;;;5089035;28;20028;-59
2021/10/04 13:14:19;;;;;;;5.20;3.13;;;;;;;;;;5095346;28;20239;-59
2021/10/04 13:16:47;;;;;;;3.93;3.10;;;;;;;;;;5107316;28;20106;-59
2021/10/04 13:19:13;;;;;;;7.83;3.20;;;;;;;;;;5107701;28;20027;-59
2021/10/04 13:21:41;;;;;;;4.83;2.93;;;;;;;;;;5110348;28;20107;-59
2021/10/04 13:24:08;;;;;;;3.87;3.00;;;;;;;;;;5112409;28;20036;-59
2021/10/04 13:26:35;;;;;;;4.80;3.30;;;;;;;;;;5100996;28;20024;-59
2021/10/04 13:29:02;;;;;;;4.57;3.00;;;;;;;;;;5092280;28;20028;-59
2021/10/04 13:31:29;;;;;;;5.07;3.00;;;;;;;;;;5091704;28;20373;-59
2021/10/04 13:33:56;;;;;;;5.47;2.90;;;;;;;;;;5088935;28;20523;-59
2021/10/04 13:36:24;;;;;;;5.60;3.27;;;;;;;;;;5087472;28;20110;-60
2021/10/04 13:38:50;;;;;;;4.97;3.07;;;;;;;;;;5101113;28;20031;-59
2021/10/04 13:41:17;;;;;;;6.60;2.70;;;;;;;;;;5106974;28;20035;-59
2021/10/04 13:43:44;;;;;;;5.90;3.13;;;;;;;;;;5109911;28;20023;-59
2021/10/04 13:46:11;;;;;;;7.47;3.07;;;;;;;;;;5112395;28;20557;-59
2021/10/04 13:48:38;;;;;;;6.00;3.10;;;;;;;;;;5111985;28;20492;-60
2021/10/04 13:51:05;;;;;;;6.13;3.30;;;;;;;;;;5098749;28;20028;-60
2021/10/04 13:53:32;;;;;;;6.57;3.03;;;;;;;;;;5091921;28;20483;-59
2021/10/04 13:56:02;;;;;;;4.43;2.80;;;;;;;;;;5092439;28;20048;-59
2021/10/04 13:58:29;;;;;;;6.07;2.70;;;;;;;;;;5110801;28;20036;-59
2021/10/04 14:00:56;;;;;;;3.90;2.60;;;;;;;;;;5110997;28;20073;-59
2021/10/04 14:03:22;;;;;;;4.97;2.17;;;;;;;;;;5110676;28;20077;-60
2021/10/04 14:05:49;;;;;;;3.10;2.03;;;;;;;;;;5113046;28;20039;-59
2021/10/04 14:08:16;;;;;;;3.67;2.23;;;;;;;;;;5095900;28;20032;-59
2021/10/04 14:10:44;;;;;;;7.40;2.57;;;;;;;;;;5095401;28;20042;-59
2021/10/04 14:13:11;;;;;;;4.47;2.30;;;;;;;;;;5095256;28;20119;-59
2021/10/04 14:15:38;;;;;;;4.67;2.40;;;;;;;;;;5095498;28;20467;-59
2021/10/04 14:18:05;;;;;;;4.63;2.60;;;;;;;;;;5094381;28;20099;-59
2021/10/04 14:20:31;;;;;;;5.53;2.27;;;;;;;;;;5110531;28;20032;-60
2021/10/04 14:22:58;;;;;;;4.60;2.07;;;;;;;;;;5110492;28;20037;-59
2021/10/04 14:25:25;;;;;;;3.97;2.00;;;;;;;;;;5110482;28;20027;-60
2021/10/04 14:27:53;;;;;;;4.07;2.00;;;;;;;;;;5112317;28;20044;-59
2021/10/04 14:30:20;;;;;;;6.67;1.90;;;;;;;;;;5115519;28;20099;-59
2021/10/04 14:32:47;;;;;;;4.20;1.80;;;;;;;;;;5113419;28;20032;-59
2021/10/04 14:35:18;;;;;;;3.67;2.00;;;;;;;;;;5114976;28;20045;-59
2021/10/04 14:37:46;;;;;;;5.47;1.90;;;;;;;;;;5115233;28;20386;-59
2021/10/04 14:40:13;;;;;;;3.40;1.87;;;;;;;;;;5112919;28;20028;-59
2021/10/04 14:42:40;;;;;;;8.13;2.10;;;;;;;;;;5109221;28;20153;-59
2021/10/04 14:45:07;;;;;;;4.80;2.40;;;;;;;;;;5089920;28;20043;-60
2021/10/04 14:47:34;;;;;;;6.83;2.43;;;;;;;;;;5090927;28;20031;-60
2021/10/04 14:50:00;;;;;;;5.57;2.30;;;;;;;;;;5090755;28;20035;-59